Time;durP1;ratioP1;P1;durP2;ratioP2;P2;SDS_P1;SDS_P2;PMS_P1;PMS_P2;Temp;Humidity;BMP_temperature;BMP_pressure;BME280_temperature;BME280_humidity;BME280_pressure;Samples;Min_cycle;Max_cycle;Signal;HPM_P1;HPM_P2
2023/06/02 00:02:33;;;;;;;;;7.00;6.00;;;;;18.03;53.99;100690.34;146606;611;46020;-66
2023/06/02 00:05:36;;;;;;;;;9.50;8.50;;;;;18.05;54.59;100694.78;146605;569;46016;-66
2023/06/02 00:09:03;;;;;;;;;8.25;5.75;;;;;16.62;54.14;100458.41;146603;590;47019;-65
2023/06/02 00:12:08;;;;;;;;;7.00;7.00;;;;;17.88;54.63;100683.97;146606;587;46017;-66
2023/06/02 00:15:29;;;;;;;;;6.50;6.50;;;;;17.91;54.61;100688.34;146605;607;46020;-68
2023/06/02 00:18:40;;;;;;;;;7.75;4.75;;;;;17.89;55.01;100690.97;146604;653;46016;-66
2023/06/02 00:22:01;;;;;;;;;;;;;;;;;;;;;
2023/06/02 00:25:18;;;;;;;;;6.50;6.25;;;;;17.93;55.19;100684.91;146605;572;46016;-63
2023/06/02 00:28:38;;;;;;;;;9.75;8.00;;;;;17.88;55.08;100683.06;146606;655;46021;-63
2023/06/02 00:31:40;;;;;;;;;7.75;7.00;;;;;17.79;55.04;100691.63;146605;563;46012;-63
2023/06/02 00:34:46;;;;;;;;;8.25;7.25;;;;;17.78;54.42;100697.72;146609;604;46011;-63
2023/06/02 00:37:41;;;;;;;;;6.25;6.00;;;;;17.77;55.71;100694.22;146605;664;46016;-63
2023/06/02 00:40:55;;;;;;;;;7.50;6.00;;;;;17.63;55.32;100689.47;146603;630;47021;-63
2023/06/02 00:43:52;;;;;;;;;7.50;7.50;;;;;17.60;55.36;100692.03;146605;564;46016;-63
2023/06/02 00:46:57;;;;;;;;;8.50;7.50;;;;;17.60;55.49;100694.66;146608;652;47010;-64
2023/06/02 00:50:19;;;;;;;;;9.25;7.25;;;;;17.59;54.50;100688.53;146604;585;46012;-62
2023/06/02 00:53:15;;;;;;;;;8.50;7.75;;;;;17.62;54.75;100685.09;146610;626;46010;-62
2023/06/02 00:56:25;;;;;;;;;10.00;9.00;;;;;17.59;54.66;100679.78;146605;692;46017;-63
2023/06/02 00:59:29;;;;;;;;;9.50;6.50;;;;;17.52;55.31;100684.87;146607;565;46010;-64
2023/06/02 01:02:43;;;;;;;;;6.00;5.50;;;;;17.49;54.45;100687.44;146604;602;46016;-65
2023/06/02 01:06:00;;;;;;;;;5.75;5.75;;;;;17.55;54.83;100684.97;146608;686;46010;-65
2023/06/02 01:08:58;;;;;;;;;5.00;5.00;;;;;17.66;54.55;100672.09;146606;646;46016;-66
2023/06/02 01:12:12;;;;;;;;;8.25;8.00;;;;;15.25;54.49;100249.47;146609;575;46014;-64
2023/06/02 01:15:27;;;;;;;;;6.00;4.00;;;;;17.82;54.13;100678.59;146606;664;46016;-66
2023/06/02 01:18:40;;;;;;;;;7.75;6.50;;;;;15.08;54.03;100203.75;146608;668;46020;-65
2023/06/02 01:21:59;;;;;;;;;9.00;7.50;;;;;17.74;55.31;100675.75;146607;600;46012;-66
2023/06/02 01:25:05;;;;;;;;;6.50;6.50;;;;;17.67;56.54;100676.47;146607;657;46020;-64
2023/06/02 01:28:12;;;;;;;;;6.25;6.25;;;;;17.65;56.37;100674.69;146605;650;46917;-66
2023/06/02 01:31:49;;;;;;;;;8.50;8.25;;;;;17.61;56.03;100670.22;146608;619;46020;-66
2023/06/02 01:35:13;;;;;;;;;8.50;8.00;;;;;17.57;56.81;100674.53;146606;575;46013;-65
2023/06/02 01:38:12;;;;;;;;;7.50;6.25;;;;;17.48;57.38;100674.31;146608;620;46010;-66
2023/06/02 01:41:13;;;;;;;;;9.75;7.00;;;;;17.44;57.24;100668.09;146606;573;47013;-66
2023/06/02 01:44:15;;;;;;;;;7.00;6.00;;;;;17.41;57.65;100670.63;146605;695;46020;-65
2023/06/02 01:47:20;;;;;;;;;8.25;7.50;;;;;14.44;57.92;100174.25;146605;583;46017;-65
2023/06/02 01:50:19;;;;;;;;;5.00;5.00;;;;;17.35;58.35;100680.09;146608;597;46010;-66
2023/06/02 01:53:46;;;;;;;;;;;;;;;;;;;;;
2023/06/02 01:56:53;;;;;;;;;8.50;7.00;;;;;17.48;59.22;100663.81;146609;684;45030;-65
2023/06/02 02:00:01;;;;;;;;;;;;;;;;;;;;;
2023/06/02 02:02:56;;;;;;;;;9.25;7.50;;;;;17.57;58.50;100679.75;146607;601;46020;-67
2023/06/02 02:05:55;;;;;;;;;11.00;8.00;;;;;17.69;58.15;100676.50;146606;666;46012;-64
2023/06/02 02:09:07;;;;;;;;;;;;;;;;;;;;;
2023/06/02 02:12:24;;;;;;;;;9.25;7.00;;;;;17.91;57.37;100693.59;146607;570;46019;-65
2023/06/02 02:15:27;;;;;;;;;8.00;8.00;;;;;18.03;56.44;100695.59;146604;655;46020;-66
2023/06/02 02:18:34;;;;;;;;;6.50;5.25;;;;;18.11;56.86;100708.03;146605;609;46016;-66
2023/06/02 02:21:31;;;;;;;;;10.00;7.25;;;;;18.16;58.34;100710.72;146610;657;46010;-67
2023/06/02 02:24:48;;;;;;;;;9.50;7.50;;;;;18.16;57.38;100705.50;146604;658;46916;-65
2023/06/02 02:27:46;;;;;;;;;8.75;8.00;;;;;18.19;57.38;100701.22;146608;685;46020;-67
2023/06/02 02:30:40;;;;;;;;;10.50;9.25;;;;;18.22;57.36;100703.91;146605;594;46016;-65
2023/06/02 02:33:52;;;;;;;;;8.00;7.00;;;;;18.28;56.44;100702.22;146609;564;47010;-66
2023/06/02 02:36:45;;;;;;;;;9.75;7.50;;;;;18.28;57.40;100700.47;146607;677;46029;-64
2023/06/02 02:39:52;;;;;;;;;;;;;;;;;;;;;
2023/06/02 02:42:58;;;;;;;;;7.00;7.00;;;;;18.29;57.67;100697.03;146608;685;46016;-65
2023/06/02 02:46:08;;;;;;;;;6.50;5.75;;;;;18.26;56.97;100699.59;146607;590;46010;-65
2023/06/02 02:49:08;;;;;;;;;7.50;6.50;;;;;18.19;56.96;100700.31;146607;564;46016;-64
2023/06/02 02:52:10;;;;;;;;;7.00;6.75;;;;;18.08;57.09;100699.22;146609;563;46020;-65
2023/06/02 02:55:22;;;;;;;;;8.75;8.25;;;;;16.66;56.57;100476.81;146607;743;46017;-65
2023/06/02 02:58:19;;;;;;;;;9.75;7.25;;;;;18.04;57.92;100710.47;146606;616;46020;-64
2023/06/02 03:01:16;;;;;;;;;7.25;7.00;;;;;17.95;58.24;100717.34;146607;584;46016;-65
2023/06/02 03:04:22;;;;;;;;;7.50;6.25;;;;;14.93;56.93;100197.31;146608;632;47014;-65
2023/06/02 03:07:40;;;;;;;;;7.00;7.00;;;;;17.83;58.59;100703.06;146604;563;46016;-65
2023/06/02 03:10:31;;;;;;;;;10.00;9.00;;;;;17.76;59.45;100699.41;146604;593;47021;-65
2023/06/02 03:13:26;;;;;;;;;8.00;8.00;;;;;17.72;59.47;100708.91;146605;564;47016;-66
2023/06/02 03:16:30;;;;;;;;;10.00;8.00;;;;;17.72;59.10;100710.66;146604;671;47020;-65
2023/06/02 03:19:31;;;;;;;;;7.00;7.00;;;;;17.73;58.21;100712.44;146608;695;46012;-65
2023/06/02 03:22:33;;;;;;;;;7.75;7.25;;;;;17.77;59.35;100696.84;146608;599;46020;-66
2023/06/02 03:25:31;;;;;;;;;9.25;8.75;;;;;17.87;59.13;100707.53;146606;616;46012;-64
2023/06/02 03:28:29;;;;;;;;;10.75;9.75;;;;;17.97;59.18;100705.16;146606;610;47014;-65
2023/06/02 03:31:28;;;;;;;;;9.00;8.00;;;;;18.02;58.82;100707.84;146605;637;46013;-64
2023/06/02 03:34:29;;;;;;;;;9.50;9.25;;;;;18.11;58.72;100710.66;146608;651;46010;-64
2023/06/02 03:37:42;;;;;;;;;8.50;7.50;;;;;18.23;57.28;100710.91;146607;604;47014;-64
2023/06/02 03:40:41;;;;;;;;;8.75;7.25;;;;;18.35;58.46;100707.66;146611;613;45021;-64
2023/06/02 03:43:54;;;;;;;;;9.75;6.75;;;;;18.45;57.82;100706.06;146605;563;47014;-64
2023/06/02 03:47:15;;;;;;;;;;;;;;;;;;;;;
2023/06/02 03:50:23;;;;;;;;;5.75;5.75;;;;;18.52;57.58;100705.31;146603;570;46016;-64
2023/06/02 03:53:52;;;;;;;;;5.50;5.50;;;;;18.60;57.52;100705.47;146609;569;46010;-64
2023/06/02 03:56:55;;;;;;;;;8.75;5.50;;;;;18.68;58.29;100711.75;146604;678;46016;-64
2023/06/02 03:59:47;;;;;;;;;10.25;7.00;;;;;18.78;58.26;100710.19;146605;614;46020;-63
2023/06/02 04:02:41;;;;;;;;;9.75;8.00;;;;;18.82;58.59;100702.41;146605;578;46016;-63
2023/06/02 04:05:46;;;;;;;;;7.75;7.75;;;;;18.86;58.92;100703.34;146605;606;46020;-64
2023/06/02 04:08:48;;;;;;;;;9.50;8.00;;;;;18.92;59.13;100699.06;146606;713;46012;-63
2023/06/02 04:11:49;;;;;;;;;10.25;9.00;;;;;19.00;57.80;100700.94;146609;575;46010;-63
2023/06/02 04:14:41;;;;;;;;;9.00;9.00;;;;;19.11;58.15;100697.63;146603;620;46012;-64
2023/06/02 04:17:38;;;;;;;;;8.75;8.50;;;;;19.29;57.67;100690.91;146603;564;46021;-63
2023/06/02 04:20:47;;;;;;;;;21.50;19.50;;;;;19.48;57.93;100697.31;146605;575;46026;-64
2023/06/02 04:23:49;;;;;;;;;10.75;10.00;;;;;19.73;56.70;100703.84;146607;707;45021;-64
2023/06/02 04:26:58;;;;;;;;;7.00;7.00;;;;;19.92;55.55;100707.59;146606;586;46014;-65
2023/06/02 04:30:24;;;;;;;;;13.50;10.00;;;;;20.07;55.34;100705.16;146608;585;46010;-66
2023/06/02 04:33:18;;;;;;;;;10.75;9.25;;;;;20.15;55.25;100713.12;146607;700;46016;-66
2023/06/02 04:36:23;;;;;;;;;10.00;9.00;;;;;20.27;56.90;100713.28;146606;682;47020;-65
2023/06/02 04:39:19;;;;;;;;;10.25;10.25;;;;;20.39;55.34;100710.78;146606;564;46013;-65
2023/06/02 04:42:22;;;;;;;;;9.75;9.75;;;;;20.55;54.35;100719.75;146606;578;46010;-65
2023/06/02 04:45:27;;;;;;;;;11.00;9.00;;;;;20.65;53.94;100716.34;146605;646;46016;-65
2023/06/02 04:48:30;;;;;;;;;11.50;11.50;;;;;20.82;53.09;100711.25;146607;623;46014;-65
2023/06/02 04:51:42;;;;;;;;;;;;;;;;;;;;;
2023/06/02 04:54:48;;;;;;;;;13.00;8.75;;;;;21.16;51.54;100715.06;146628;663;46020;-65
2023/06/02 04:58:11;;;;;;;;;8.50;8.50;;;;;21.35;51.38;100705.56;146623;629;46012;-65
2023/06/02 05:01:15;;;;;;;;;8.50;8.00;;;;;21.55;50.78;100700.41;146630;697;45021;-65
2023/06/02 05:04:23;;;;;;;;;9.75;9.75;;;;;19.19;50.23;100265.78;146628;595;45012;-65
2023/06/02 05:07:23;;;;;;;;;13.00;11.00;;;;;21.88;49.77;100701.47;146625;569;46025;-65
2023/06/02 05:10:24;;;;;;;;;8.00;7.67;;;;;22.00;50.36;100708.56;146628;680;45035;-64
2023/06/02 05:13:35;;;;;;;;;9.50;9.50;;;;;22.17;49.53;100706.88;146629;684;45916;-65
2023/06/02 05:16:54;;;;;;;;;10.75;9.50;;;;;22.29;48.97;100709.56;146627;564;45017;-65
2023/06/02 05:19:53;;;;;;;;;12.25;8.50;;;;;22.48;49.34;100704.34;146628;570;45020;-65
2023/06/02 05:23:03;;;;;;;;;9.50;8.25;;;;;22.63;49.21;100696.44;146628;697;46013;-64
2023/06/02 05:26:02;;;;;;;;;10.75;10.25;;;;;22.78;46.45;100698.22;146629;581;45916;-65
2023/06/02 05:28:58;;;;;;;;;11.75;11.75;;;;;22.90;47.19;100710.56;146625;717;45916;-66
2023/06/02 05:32:01;;;;;;;;;10.75;9.75;;;;;23.05;47.41;100714.13;146628;564;44917;-65
2023/06/02 05:35:05;;;;;;;;;10.00;9.50;;;;;23.26;47.30;100709.69;146624;569;46010;-64
2023/06/02 05:38:17;;;;;;;;;;;;;;;;;;;;;
2023/06/02 05:41:35;;;;;;;;;10.00;9.00;;;;;23.58;43.99;100719.34;146626;706;46012;-66
2023/06/02 05:44:53;;;;;;;;;11.00;9.00;;;;;23.56;44.25;100716.72;146626;681;46010;-65
2023/06/02 05:47:51;;;;;;;;;7.00;7.00;;;;;23.46;44.60;100721.16;146625;576;45037;-65
2023/06/02 05:51:08;;;;;;;;;10.75;9.50;;;;;23.30;45.97;100719.38;146607;579;46020;-66
2023/06/02 05:54:13;;;;;;;;;29.50;28.00;;;;;23.21;45.43;100730.00;146604;588;46016;-65
2023/06/02 05:57:14;;;;;;;;;11.00;9.25;;;;;23.13;46.22;100715.88;146608;583;46010;-66
2023/06/02 06:00:10;;;;;;;;;11.00;10.00;;;;;23.10;45.80;100721.19;146605;619;46015;-64
2023/06/02 06:03:04;;;;;;;;;8.75;8.00;;;;;23.11;45.77;100712.34;146604;576;47010;-64
2023/06/02 06:06:12;;;;;;;;;8.67;7.67;;;;;23.18;46.63;100714.13;146607;652;46016;-65
2023/06/02 06:09:07;;;;;;;;;11.00;11.00;;;;;23.21;46.26;100714.13;146609;595;46014;-65
2023/06/02 06:12:21;;;;;;;;;11.00;10.00;;;;;20.80;46.84;100280.81;146603;578;47016;-66
2023/06/02 06:15:19;;;;;;;;;7.67;7.00;;;;;23.27;46.85;100709.72;146623;602;47020;-68
2023/06/02 06:18:20;;;;;;;;;6.00;5.67;;;;;23.28;48.59;100713.22;146608;607;46012;-69
2023/06/02 06:21:13;;;;;;;;;5.00;4.67;;;;;23.29;48.90;100707.94;146609;635;46020;-68
2023/06/02 06:24:06;;;;;;;;;10.67;9.33;;;;;23.34;47.11;100705.28;146608;564;46016;-69
2023/06/02 06:27:09;;;;;;;;;7.00;7.00;;;;;23.37;46.74;100704.41;146609;609;46020;-70
2023/06/02 06:30:12;;;;;;;;;11.25;9.00;;;;;23.41;47.44;100696.44;146604;632;46016;-67
2023/06/02 06:33:21;;;;;;;;;9.67;9.00;;;;;23.46;48.42;100689.41;146608;618;46020;-68
2023/06/02 06:36:26;;;;;;;;;10.00;9.33;;;;;21.19;47.76;100271.22;146604;599;46015;-68
2023/06/02 06:39:24;;;;;;;;;9.00;9.00;;;;;23.73;47.38;100684.94;146605;596;46021;-68
2023/06/02 06:42:21;;;;;;;;;10.25;10.00;;;;;23.92;46.38;100686.62;146605;730;46016;-67
2023/06/02 06:45:30;;;;;;;;;10.75;9.75;;;;;21.76;46.00;100277.37;146603;595;47021;-67
2023/06/02 06:48:24;;;;;;;;;10.00;8.00;;;;;24.34;43.27;100686.44;146606;670;46016;-67
2023/06/02 06:51:22;;;;;;;;;7.00;5.25;;;;;24.39;44.07;100685.53;146627;564;46010;-67
2023/06/02 06:54:15;;;;;;;;;9.00;8.00;;;;;24.42;43.82;100688.19;146626;620;46012;-67
2023/06/02 06:57:16;;;;;;;;;10.33;8.67;;;;;24.53;43.59;100687.22;146631;591;45010;-68
2023/06/02 07:00:17;;;;;;;;;10.50;9.75;;;;;24.75;44.01;100683.53;146626;659;46013;-67
2023/06/02 07:03:17;;;;;;;;;10.50;8.00;;;;;25.02;43.85;100676.25;146628;614;46010;-70
2023/06/02 07:06:29;;;;;;;;;8.67;8.67;;;;;25.32;43.19;100685.69;146626;600;45016;-70
2023/06/02 07:09:28;;;;;;;;;9.33;8.00;;;;;25.56;41.98;100677.47;146628;631;46010;-68
2023/06/02 07:12:31;;;;;;;;;9.75;8.75;;;;;25.61;41.86;100679.19;146625;657;45016;-67
2023/06/02 07:15:36;;;;;;;;;5.33;5.33;;;;;25.64;42.06;100676.50;146628;639;45021;-68
2023/06/02 07:18:40;;;;;;;;;8.33;8.33;;;;;25.77;42.28;100680.81;146628;590;46010;-67
2023/06/02 07:21:44;;;;;;;;;5.67;5.67;;;;;25.90;42.74;100684.22;146631;665;45027;-67
2023/06/02 07:24:51;;;;;;;;;7.00;7.00;;;;;25.96;40.76;100684.16;146625;592;45016;-67
2023/06/02 07:27:57;;;;;;;;;5.33;5.00;;;;;25.93;40.77;100678.88;146630;618;45020;-68
2023/06/02 07:30:56;;;;;;;;;8.00;7.00;;;;;25.93;40.78;100684.19;146628;571;45033;-69
2023/06/02 07:33:56;;;;;;;;;7.00;6.00;;;;;26.03;42.50;100686.69;146630;607;45020;-68
2023/06/02 07:37:11;;;;;;;;;7.00;7.00;;;;;26.31;40.99;100682.78;146628;609;46913;-68
2023/06/02 07:40:25;;;;;;;;;10.00;7.67;;;;;26.59;42.18;100680.63;146629;629;45036;-67
2023/06/02 07:43:21;;;;;;;;;8.00;7.00;;;;;26.69;40.66;100683.12;146626;588;45016;-67
2023/06/02 07:46:25;;;;;;;;;;;;;;;;;;;;;
2023/06/02 07:49:23;;;;;;;;;9.00;8.00;;;;;26.55;42.08;100689.56;146617;570;46014;-69
2023/06/02 07:52:27;;;;;;;;;7.00;7.00;;;;;26.71;41.74;100686.62;146609;639;46010;-68
2023/06/02 07:55:34;;;;;;;;;6.50;6.00;;;;;26.82;40.93;100686.47;146605;658;46016;-68
2023/06/02 07:58:33;;;;;;;;;6.75;6.75;;;;;26.76;39.69;100689.25;146607;676;46010;-67
2023/06/02 08:01:32;;;;;;;;;7.00;7.00;;;;;26.63;40.79;100687.66;146607;720;46012;-68
2023/06/02 08:04:47;;;;;;;;;9.67;7.00;;;;;26.55;41.24;100697.56;146608;573;46020;-69
2023/06/02 08:07:48;;;;;;;;;9.50;9.50;;;;;26.55;41.25;100689.56;146604;582;45019;-67
2023/06/02 08:10:43;;;;;;;;;9.50;8.25;;;;;26.52;40.65;100687.81;146605;626;46010;-67
2023/06/02 08:13:44;;;;;;;;;9.00;8.50;;;;;26.34;41.06;100696.91;146606;635;46017;-67
2023/06/02 08:16:41;;;;;;;;;10.33;9.33;;;;;25.96;41.29;100700.09;146610;706;45020;-67
2023/06/02 08:19:39;;;;;;;;;9.25;9.00;;;;;25.68;42.30;100696.84;146603;578;46914;-67
2023/06/02 08:22:48;;;;;;;;;9.50;9.00;;;;;25.68;43.40;100695.06;146608;677;46010;-69
2023/06/02 08:26:04;;;;;;;;;10.25;9.00;;;;;24.09;43.46;100389.00;146606;616;46012;-68
2023/06/02 08:28:59;;;;;;;;;9.75;8.25;;;;;26.01;42.17;100700.88;146606;574;46011;-64
2023/06/02 08:31:58;;;;;;;;;10.50;8.50;;;;;26.08;40.28;100696.41;146603;663;47012;-65
2023/06/02 08:34:55;;;;;;;;;12.00;10.25;;;;;26.02;40.75;100697.34;146605;714;46020;-66
2023/06/02 08:38:16;;;;;;;;;9.25;9.25;;;;;23.66;42.14;100315.22;146603;594;46016;-68
2023/06/02 08:41:26;;;;;;;;;12.50;10.50;;;;;25.86;41.91;100693.09;146605;586;47010;-65
2023/06/02 08:44:37;;;;;;;;;7.00;7.00;;;;;25.76;40.03;100687.91;146605;571;46014;-64
2023/06/02 08:47:39;;;;;;;;;7.00;7.00;;;;;25.63;40.24;100690.69;146608;564;46010;-66
2023/06/02 08:50:58;;;;;;;;;7.33;7.33;;;;;25.71;42.83;100684.41;146607;605;46016;-65
2023/06/02 08:54:08;;;;;;;;;8.33;7.00;;;;;25.89;41.60;100675.38;146608;572;47010;-65
2023/06/02 08:57:16;;;;;;;;;6.33;5.33;;;;;26.02;39.64;100673.44;146604;607;47012;-65
2023/06/02 09:00:27;;;;;;;;;6.00;6.00;;;;;26.06;40.52;100669.84;146608;591;46020;-64
2023/06/02 09:03:27;;;;;;;;;7.00;7.00;;;;;26.11;41.70;100669.78;146608;614;46012;-65
2023/06/02 09:06:43;;;;;;;;;7.33;6.33;;;;;26.12;41.24;100672.41;146609;579;46021;-65
2023/06/02 09:09:51;;;;;;;;;7.67;6.67;;;;;26.18;41.56;100664.34;146607;595;46014;-66
2023/06/02 09:12:55;;;;;;;;;6.33;6.00;;;;;26.41;40.73;100653.38;146607;690;46020;-65
2023/06/02 09:16:23;;;;;;;;;6.33;6.33;;;;;24.84;41.04;100324.56;146606;579;47012;-65
2023/06/02 09:19:21;;;;;;;;;6.00;6.00;;;;;27.10;37.94;100662.03;146607;564;46020;-65
2023/06/02 09:22:18;;;;;;;;;7.00;7.00;;;;;27.26;37.86;100658.25;146606;741;46016;-65
2023/06/02 09:25:49;;;;;;;;;5.33;5.33;;;;;27.20;39.75;100650.37;146604;586;46020;-65
2023/06/02 09:28:43;;;;;;;;;7.00;7.00;;;;;27.04;37.66;100635.53;146607;626;46029;-65
2023/06/02 09:32:24;;;;;;;;;7.67;6.67;;;;;24.55;37.97;100245.41;146608;612;46020;-66
2023/06/02 09:36:04;;;;;;;;;6.00;4.67;;;;;24.76;37.33;100308.75;146607;576;46012;-67
2023/06/02 09:39:04;;;;;;;;;9.67;8.67;;;;;26.60;39.25;100629.19;146609;606;46010;-66
2023/06/02 09:42:43;;;;;;;;;6.33;6.33;;;;;24.91;40.74;100290.88;146606;574;46018;-66
2023/06/02 09:46:25;;;;;;;;;7.67;5.67;;;;;26.09;38.77;100451.91;146610;621;46010;-65
2023/06/02 09:49:24;;;;;;;;;6.33;5.67;;;;;27.28;36.48;100640.44;146607;571;46916;-66
2023/06/02 09:52:33;;;;;;;;;5.00;5.00;;;;;27.32;37.21;100641.25;146608;632;46020;-66
2023/06/02 09:55:38;;;;;;;;;8.67;7.00;;;;;27.16;37.60;100640.66;146607;616;46014;-65
2023/06/02 09:59:01;;;;;;;;;7.00;6.00;;;;;25.47;41.19;100366.13;146609;574;46021;-66
2023/06/02 10:02:06;;;;;;;;;7.67;7.00;;;;;27.10;38.85;100631.00;146606;630;47012;-66
2023/06/02 10:05:04;;;;;;;;;7.67;7.67;;;;;27.26;38.28;100631.62;146611;572;46010;-65
2023/06/02 10:08:55;;;;;;;;;;;;;;;;;;;;;
2023/06/02 10:12:32;;;;;;;;;6.00;5.00;;;;;25.21;36.06;100330.25;146610;584;46020;-65
2023/06/02 10:15:53;;;;;;;;;7.67;6.67;;;;;24.61;38.81;100254.19;146608;575;46012;-66
2023/06/02 10:19:38;;;;;;;;;9.00;5.33;;;;;26.79;36.53;100620.03;146609;592;47015;-66
2023/06/02 10:23:11;;;;;;;;;8.67;7.67;;;;;26.94;37.05;100618.84;146608;566;46012;-66
2023/06/02 10:26:43;;;;;;;;;8.67;5.67;;;;;24.62;39.23;100192.31;146608;572;46020;-65
2023/06/02 10:29:37;;;;;;;;;4.67;4.67;;;;;27.19;37.45;100608.66;146608;602;46012;-65
2023/06/02 10:33:01;;;;;;;;;8.67;8.00;;;;;27.26;40.30;100614.75;146607;571;46010;-65
2023/06/02 10:36:18;;;;;;;;;7.33;5.67;;;;;25.11;39.89;100227.81;146607;596;46012;-65
2023/06/02 10:39:52;;;;;;;;;7.67;7.67;;;;;27.39;38.22;100621.62;146610;580;46010;-65
2023/06/02 10:43:19;;;;;;;;;7.00;7.00;;;;;24.62;38.34;100152.53;146606;622;46016;-65
2023/06/02 10:46:48;;;;;;;;;6.67;6.33;;;;;24.86;39.72;100195.50;146608;563;47010;-65
2023/06/02 10:50:36;;;;;;;;;5.67;5.67;;;;;25.07;39.99;100231.38;146606;564;46017;-66
2023/06/02 10:53:32;;;;;;;;;7.00;6.00;;;;;27.38;38.04;100609.19;146610;624;46010;-66
2023/06/02 10:57:02;;;;;;;;;6.00;6.00;;;;;25.19;35.75;100233.00;146606;587;46016;-65
2023/06/02 10:59:58;;;;;;;;;6.33;6.33;;;;;27.36;35.79;100605.69;146608;569;46020;-66
2023/06/02 11:03:41;;;;;;;;;6.33;6.00;;;;;27.23;37.00;100601.50;146604;612;47012;-67
2023/06/02 11:06:43;;;;;;;;;8.67;7.67;;;;;26.94;35.57;100592.25;146607;576;46020;-67
2023/06/02 11:09:46;;;;;;;;;6.00;6.00;;;;;26.72;35.29;100597.94;146604;591;46016;-67
2023/06/02 11:13:31;;;;;;;;;6.67;6.00;;;;;24.28;36.95;100206.91;146607;569;46021;-67
2023/06/02 11:17:13;;;;;;;;;5.00;5.00;;;;;24.45;36.01;100238.50;146606;635;46012;-67
2023/06/02 11:20:13;;;;;;;;;8.67;7.33;;;;;26.58;37.38;100591.12;146607;602;46021;-66
2023/06/02 11:23:18;;;;;;;;;7.00;7.00;;;;;26.64;36.11;100591.91;146607;594;46034;-66
2023/06/02 11:26:43;;;;;;;;;8.00;7.00;;;;;25.86;36.89;100448.72;146611;592;46021;-67
2023/06/02 11:30:12;;;;;;;;;6.00;6.00;;;;;24.54;35.56;100209.22;146606;584;46016;-67
2023/06/02 11:33:05;;;;;;;;;8.00;7.00;;;;;26.84;36.93;100588.88;146607;611;47020;-66
2023/06/02 11:36:39;;;;;;;;;5.67;5.67;;;;;27.10;36.79;100576.88;146609;575;46012;-68
2023/06/02 11:39:46;;;;;;;;;5.67;5.67;;;;;27.13;36.21;100564.41;146608;599;46020;-67
2023/06/02 11:42:49;;;;;;;;;8.67;6.00;;;;;27.22;37.74;100560.69;146608;667;46016;-67
2023/06/02 11:46:17;;;;;;;;;7.00;6.33;;;;;27.37;35.60;100570.16;146610;607;46010;-68
2023/06/02 11:49:30;;;;;;;;;;;;;;;;;;;;;
2023/06/02 11:52:28;;;;;;;;;6.33;6.00;;;;;27.44;37.24;100571.78;146610;670;46012;-68
2023/06/02 11:55:32;;;;;;;;;7.00;7.00;;;;;27.38;35.60;100569.25;146607;603;46013;-66
2023/06/02 11:58:43;;;;;;;;;7.00;7.00;;;;;27.41;36.97;100571.84;146609;626;46010;-66
2023/06/02 12:01:45;;;;;;;;;7.00;7.00;;;;;27.38;36.42;100555.94;146605;585;46916;-66
2023/06/02 12:04:56;;;;;;;;;8.00;6.67;;;;;27.41;38.64;100561.19;146609;617;46011;-66
2023/06/02 12:07:58;;;;;;;;;6.00;5.67;;;;;27.46;36.88;100556.66;146606;611;46012;-66
2023/06/02 12:11:06;;;;;;;;;6.00;6.00;;;;;27.50;36.72;100550.34;146606;583;46020;-66
2023/06/02 12:14:30;;;;;;;;;7.00;7.00;;;;;25.20;38.95;100171.06;146604;594;47022;-66
2023/06/02 12:17:24;;;;;;;;;5.00;4.00;;;;;27.33;34.07;100547.19;146609;636;46010;-66
2023/06/02 12:20:38;;;;;;;;;8.00;7.00;;;;;27.14;35.88;100549.34;146607;581;46017;-66
2023/06/02 12:23:57;;;;;;;;;6.00;6.00;;;;;26.91;35.07;100550.59;146607;575;46020;-66
2023/06/02 12:26:54;;;;;;;;;7.67;7.00;;;;;26.71;35.28;100544.78;146608;586;46013;-67
2023/06/02 12:30:04;;;;;;;;;;;;;;;;;;;;;
2023/06/02 12:33:09;;;;;;;;;6.33;6.33;;;;;26.80;36.05;100536.66;146602;570;46016;-66
2023/06/02 12:36:05;;;;;;;;;7.67;7.67;;;;;26.96;36.02;100534.56;146609;645;46029;-67
2023/06/02 12:39:01;;;;;;;;;3.00;3.00;;;;;27.08;37.66;100526.34;146605;570;46014;-66
2023/06/02 12:42:05;;;;;;;;;7.67;6.67;;;;;27.23;37.05;100526.97;146608;566;46010;-66
2023/06/02 12:45:02;;;;;;;;;7.67;7.67;;;;;27.40;36.12;100535.50;146607;587;45027;-66
2023/06/02 12:48:15;;;;;;;;;7.00;6.00;;;;;27.47;37.34;100523.78;146609;593;46021;-66
2023/06/02 12:51:17;;;;;;;;;7.67;6.67;;;;;27.52;36.14;100532.56;146626;621;45012;-67
2023/06/02 12:54:11;;;;;;;;;4.00;4.00;;;;;27.48;35.99;100533.56;146632;637;45010;-68
2023/06/02 12:57:26;;;;;;;;;6.67;6.00;;;;;27.46;37.96;100535.34;146623;576;46012;-66
2023/06/02 13:00:21;;;;;;;;;7.33;6.00;;;;;27.50;37.48;100529.03;146629;637;45020;-66
2023/06/02 13:03:19;;;;;;;;;6.00;5.33;;;;;27.54;37.83;100524.53;146627;616;45914;-66
2023/06/02 13:06:38;;;;;;;;;;;;;;;;;;;;;
2023/06/02 13:09:36;;;;;;;;;6.67;6.67;;;;;27.61;36.51;100524.38;146625;713;46012;-64
2023/06/02 13:12:40;;;;;;;;;6.00;6.00;;;;;27.62;36.06;100526.13;146628;705;45020;-64
2023/06/02 13:15:38;;;;;;;;;5.67;5.67;;;;;27.54;36.52;100524.53;146629;622;45012;-66
2023/06/02 13:18:36;;;;;;;;;8.00;5.67;;;;;27.42;35.43;100522.16;146632;596;45011;-64
2023/06/02 13:21:53;;;;;;;;;5.75;5.75;;;;;27.27;38.10;100520.69;146621;728;45912;-65
2023/06/02 13:25:08;;;;;;;;;7.00;7.00;;;;;27.15;36.25;100514.69;146627;598;45021;-65
2023/06/02 13:28:11;;;;;;;;;6.00;6.00;;;;;27.10;37.21;100519.22;146628;599;45016;-65
2023/06/02 13:31:17;;;;;;;;;5.67;5.67;;;;;27.13;37.22;100515.59;146626;593;45027;-65
2023/06/02 13:34:19;;;;;;;;;9.00;7.25;;;;;27.21;37.51;100516.38;146628;652;45016;-65
2023/06/02 13:37:37;;;;;;;;;5.00;5.00;;;;;27.35;35.13;100519.63;146630;624;46014;-65
2023/06/02 13:40:39;;;;;;;;;6.33;5.67;;;;;27.43;35.41;100516.78;146618;629;46016;-65
2023/06/02 13:43:44;;;;;;;;;6.67;6.33;;;;;27.39;35.67;100515.09;146628;593;46010;-64
2023/06/02 13:46:41;;;;;;;;;6.00;6.00;;;;;27.31;35.21;100501.94;146626;607;45016;-66
2023/06/02 13:49:45;;;;;;;;;5.00;5.00;;;;;27.32;35.54;100498.41;146620;611;46010;-66
2023/06/02 13:52:43;;;;;;;;;8.00;7.33;;;;;27.31;36.21;100507.25;146608;645;45036;-64
2023/06/02 13:55:43;;;;;;;;;7.67;7.00;;;;;27.31;36.23;100495.75;146609;688;46010;-66
2023/06/02 13:58:59;;;;;;;;;7.00;6.00;;;;;27.28;34.75;100496.69;146605;571;46016;-65
2023/06/02 14:01:54;;;;;;;;;7.00;6.00;;;;;27.23;35.60;100492.34;146608;566;46020;-65
2023/06/02 14:05:03;;;;;;;;;6.00;6.00;;;;;27.20;36.63;100497.75;146605;613;47014;-64
2023/06/02 14:07:58;;;;;;;;;8.00;6.00;;;;;27.18;35.27;100500.47;146609;575;46010;-64
2023/06/02 14:10:52;;;;;;;;;6.33;5.67;;;;;26.22;35.14;100331.19;146605;588;46012;-65
2023/06/02 14:14:10;;;;;;;;;7.00;5.67;;;;;27.18;36.17;100493.34;146607;564;46036;-66
2023/06/02 14:17:15;;;;;;;;;6.00;6.00;;;;;27.20;34.74;100489.75;146604;606;47012;-65
2023/06/02 14:20:18;;;;;;;;;4.00;4.00;;;;;27.22;33.94;100491.47;146607;627;46020;-64
2023/06/02 14:23:24;;;;;;;;;6.33;6.33;;;;;27.28;35.21;100490.50;146609;570;46016;-65
2023/06/02 14:26:25;;;;;;;;;7.67;6.00;;;;;27.32;33.19;100484.19;146607;636;46010;-65
2023/06/02 14:29:21;;;;;;;;;7.67;6.67;;;;;27.24;32.28;100476.38;146603;660;46016;-65
2023/06/02 14:32:21;;;;;;;;;6.33;6.33;;;;;27.16;33.66;100478.31;146610;577;45021;-64
2023/06/02 14:35:46;;;;;;;;;9.33;8.33;;;;;27.26;34.64;100473.66;146606;653;47016;-63
2023/06/02 14:38:44;;;;;;;;;4.00;3.00;;;;;27.37;33.46;100469.88;146605;564;46020;-65
2023/06/02 14:41:39;;;;;;;;;5.33;5.33;;;;;27.41;32.11;100468.00;146604;564;47041;-64
2023/06/02 14:44:44;;;;;;;;;;;;;;;;;;;;;
2023/06/02 14:47:54;;;;;;;;;;;;;;;;;;;;;
2023/06/02 14:50:51;;;;;;;;;6.00;5.00;;;;;27.27;32.97;100462.12;146606;605;46020;-65
2023/06/02 14:53:52;;;;;;;;;5.33;5.33;;;;;27.24;33.99;100457.75;146607;639;46012;-64